Time;durP1;ratioP1;P1;durP2;ratioP2;P2;SDS_P1;SDS_P2;PMS_P1;PMS_P2;Temp;Humidity;BMP_temperature;BMP_pressure;BME280_temperature;BME280_humidity;BME280_pressure;Samples;Min_cycle;Max_cycle;Signal;HPM_P1;HPM_P2
2023/07/21 00:01:51;;;;;;;3.28;1.70;;;;;;;;;;5053570;28;20040;-80
2023/07/21 00:04:17;;;;;;;4.30;2.88;;;;;;;;;;5075945;28;20799;-80
2023/07/21 00:06:44;;;;;;;5.32;2.70;;;;;;;;;;5061121;28;20056;-79
2023/07/21 00:09:11;;;;;;;1.88;1.00;;;;;;;;;;5061651;28;20056;-78
2023/07/21 00:11:38;;;;;;;0.63;0.20;;;;;;;;;;5061732;28;20059;-79
2023/07/21 00:14:07;;;;;;;0.70;0.20;;;10.80;99.90;;;;;;5061820;28;20067;-80
2023/07/21 00:16:33;;;;;;;0.75;0.30;;;10.80;99.90;;;;;;5062643;28;20067;-80
2023/07/21 00:19:00;;;;;;;1.20;0.50;;;10.80;99.90;;;;;;5064950;28;20052;-80
2023/07/21 00:21:26;;;;;;;1.30;0.50;;;;;;;;;;5061807;28;20052;-80
2023/07/21 00:23:52;;;;;;;1.50;0.77;;;;;;;;;;5045375;28;20087;-81
2023/07/21 00:26:19;;;;;;;3.55;1.38;;;;;;;;;;5061734;28;20041;-80
2023/07/21 00:28:45;;;;;;;4.65;2.17;;;;;;;;;;5061690;28;20071;-80
2023/07/21 00:31:11;;;;;;;4.60;2.97;;;10.90;99.90;;;;;;5095724;28;20092;-80
2023/07/21 00:33:37;;;;;;;3.47;2.55;;;10.80;99.90;;;;;;5061918;28;20083;-80
2023/07/21 00:36:04;;;;;;;4.15;2.78;;;10.80;99.90;;;;;;5061747;28;20130;-79
2023/07/21 00:38:30;;;;;;;7.00;4.18;;;10.80;99.90;;;;;;5095621;28;20891;-79
2023/07/21 00:40:56;;;;;;;5.10;4.22;;;;;;;;;;5062038;28;20049;-79
2023/07/21 00:43:23;;;;;;;2.95;2.38;;;;;;;;;;5060716;28;20056;-81
2023/07/21 00:45:50;;;;;;;5.25;3.22;;;;;;;;;;5064110;28;20054;-80
2023/07/21 00:48:17;;;;;;;3.85;2.67;;;10.80;99.90;;;;;;5063113;28;20055;-80
2023/07/21 00:50:48;;;;;;;3.60;2.60;;;;;;;;;;5060114;28;20045;-80
2023/07/21 00:53:14;;;;;;;4.85;2.90;;;;;;;;;;5093873;28;20698;-78
2023/07/21 00:55:45;;;;;;;6.57;4.15;;;10.70;99.90;;;;;;5060426;28;20036;-79
2023/07/21 00:58:12;;;;;;;7.65;4.63;;;10.70;99.90;;;;;;5059971;28;20060;-78
2023/07/21 01:00:39;;;;;;;6.88;3.95;;;10.70;99.90;;;;;;5062317;28;20049;-80
2023/07/21 01:03:07;;;;;;;9.32;4.40;;;;;;;;;;5100061;27;20060;-80
2023/07/21 01:05:36;;;;;;;5.13;3.83;;;10.80;99.90;;;;;;5060629;28;20052;-80
2023/07/21 01:08:05;;;;;;;4.35;3.17;;;10.80;99.90;;;;;;5060682;28;20088;-79
2023/07/21 01:10:37;;;;;;;4.43;3.28;;;10.80;99.90;;;;;;5094705;28;20124;-79
2023/07/21 01:13:03;;;;;;;3.47;2.30;;;;;;;;;;5057087;28;20084;-80
2023/07/21 01:15:30;;;;;;;3.53;2.30;;;;;;;;;;5044663;28;20058;-78
2023/07/21 01:17:58;;;;;;;3.25;2.40;;;10.80;99.90;;;;;;5060625;28;20048;-77
2023/07/21 01:20:27;;;;;;;3.03;2.20;;;10.70;99.90;;;;;;5060552;28;20056;-77
2023/07/21 01:22:56;;;;;;;3.22;2.20;;;10.70;99.90;;;;;;5095518;28;20052;-77
2023/07/21 01:25:22;;;;;;;3.88;2.47;;;;;;;;;;5056393;28;20048;-78
2023/07/21 01:27:50;;;;;;;5.35;2.80;;;10.60;99.90;;;;;;5061760;28;20053;-78
2023/07/21 01:30:18;;;;;;;5.03;2.83;;;10.60;99.90;;;;;;5064020;28;20056;-78
2023/07/21 01:32:46;;;;;;;7.10;3.00;;;10.50;99.90;;;;;;5065203;28;20119;-79
2023/07/21 01:35:15;;;;;;;4.07;3.22;;;10.50;99.90;;;;;;5065625;28;20044;-78
2023/07/21 01:37:42;;;;;;;7.13;3.33;;;;;;;;;;5058460;28;20052;-79
2023/07/21 01:40:10;;;;;;;4.18;2.95;;;;;;;;;;5064951;28;20474;-78
2023/07/21 01:42:37;;;;;;;4.63;3.30;;;;;;;;;;5062962;28;20056;-78
2023/07/21 01:45:04;;;;;;;3.40;2.42;;;;;;;;;;5062655;28;20086;-78
2023/07/21 01:47:32;;;;;;;4.20;3.28;;;10.20;99.90;;;;;;5067702;28;20155;-78
2023/07/21 01:49:58;;;;;;;4.00;2.92;;;;;;;;;;5060078;28;20064;-77
2023/07/21 01:52:30;;;;;;;2.92;2.20;;;10.20;99.90;;;;;;5059647;28;20127;-78
2023/07/21 01:55:01;;;;;;;4.10;3.25;;;10.20;99.90;;;;;;5057683;28;20448;-78
2023/07/21 01:57:33;;;;;;;6.63;2.92;;;10.10;99.90;;;;;;5059056;28;20052;-77
2023/07/21 02:00:04;;;;;;;3.60;2.50;;;;;;;;;;5044505;28;20098;-77
2023/07/21 02:02:30;;;;;;;5.15;1.48;;;;;;;;;;5056436;28;20052;-77
2023/07/21 02:04:57;;;;;;;5.05;1.52;;;;;;;;;;5061306;28;20417;-79
2023/07/21 02:07:24;;;;;;;1.60;0.82;;;;;;;;;;5061058;28;20052;-76
2023/07/21 02:09:51;;;;;;;1.52;0.85;;;9.90;99.90;;;;;;5060375;28;20575;-77
2023/07/21 02:12:17;;;;;;;2.30;1.40;;;;;;;;;;5059036;28;20048;-77
2023/07/21 02:14:43;;;;;;;1.65;1.10;;;;;;;;;;5055791;28;20049;-77
2023/07/21 02:17:09;;;;;;;7.07;1.73;;;;;;;;;;5060963;28;20580;-77
2023/07/21 02:19:36;;;;;;;2.17;1.42;;;;;;;;;;5044011;28;20048;-78
2023/07/21 02:22:02;;;;;;;4.03;2.35;;;;;;;;;;5088437;28;20048;-77
2023/07/21 02:24:28;;;;;;;3.17;2.40;;;;;;;;;;5060468;28;20055;-77
2023/07/21 02:26:54;;;;;;;3.60;2.67;;;;;;;;;;5060398;28;20444;-77
2023/07/21 02:29:20;;;;;;;5.25;2.88;;;;;;;;;;5060132;28;20065;-77
2023/07/21 02:31:49;;;;;;;3.90;2.10;;;9.70;99.90;;;;;;5060451;28;20060;-76
2023/07/21 02:34:15;;;;;;;2.88;2.08;;;;;;;;;;5060676;28;20074;-77
2023/07/21 02:36:41;;;;;;;2.65;2.15;;;;;;;;;;5060291;28;20044;-75
2023/07/21 02:39:07;;;;;;;3.25;2.08;;;;;;;;;;5039919;28;20095;-77
2023/07/21 02:41:33;;;;;;;5.70;1.15;;;9.60;99.90;;;;;;5060525;28;20055;-77
2023/07/21 02:43:59;;;;;;;1.50;0.60;;;9.90;99.90;;;;;;5060428;28;20049;-76
2023/07/21 02:46:25;;;;;;;0.80;0.45;;;11.60;99.90;;;;;;5093846;28;20060;-76
2023/07/21 02:48:51;;;;;;;1.00;0.40;;;;;;;;;;5060201;28;20539;-76
2023/07/21 02:51:17;;;;;;;0.75;0.30;;;;;;;;;;5093810;28;20057;-77
2023/07/21 02:53:43;;;;;;;0.50;0.20;;;9.60;99.90;;;;;;5055061;28;20413;-76
2023/07/21 02:56:09;;;;;;;1.25;0.30;;;;;;;;;;5060353;28;20052;-75
2023/07/21 02:58:36;;;;;;;1.33;0.28;;;;;;;;;;5059808;28;20497;-76
2023/07/21 03:01:03;;;;;;;2.38;0.80;;;;;;;;;;5059522;28;20051;-75
2023/07/21 03:03:32;;;;;;;1.92;0.70;;;9.60;99.90;;;;;;5059952;28;20048;-76
2023/07/21 03:05:59;;;;;;;1.45;0.70;;;9.50;99.90;;;;;;5059748;28;20056;-74
2023/07/21 03:08:30;;;;;;;3.08;0.70;;;;;;;;;;5043023;28;20129;-75
2023/07/21 03:10:56;;;;;;;1.40;0.60;;;9.50;99.90;;;;;;5093750;28;20131;-76
2023/07/21 03:13:24;;;;;;;1.25;0.40;;;;;;;;;;5060109;28;20072;-76
2023/07/21 03:15:51;;;;;;;1.85;0.28;;;;;;;;;;5033462;28;20549;-76
2023/07/21 03:18:17;;;;;;;10.50;0.63;;;;;;;;;;5048450;28;20056;-76
2023/07/21 03:20:43;;;;;;;6.80;0.40;;;;;;;;;;5060590;28;20090;-75
2023/07/21 03:23:11;;;;;;;1.13;0.40;;;;;;;;;;5060145;28;20059;-75
2023/07/21 03:25:46;;;;;;;3.42;0.22;;;9.30;99.90;;;;;;5060127;28;20058;-75
2023/07/21 03:28:12;;;;;;;0.30;0.10;;;;;;;;;;5059606;28;20056;-75
2023/07/21 03:30:41;;;;;;;2.72;0.60;;;;;;;;;;5060152;28;20056;-75
2023/07/21 03:33:07;;;;;;;3.05;1.00;;;9.20;99.90;;;;;;5060426;28;20056;-75
2023/07/21 03:35:33;;;;;;;2.22;1.00;;;;;;;;;;5060790;28;20094;-76
2023/07/21 03:37:59;;;;;;;7.43;0.80;;;;;;;;;;5060253;28;20577;-74
2023/07/21 03:40:25;;;;;;;0.95;0.50;;;;;;;;;;5060231;28;20102;-74
2023/07/21 03:42:52;;;;;;;3.40;0.60;;;10.00;99.90;;;;;;5060445;28;20408;-75
2023/07/21 03:45:18;;;;;;;6.22;0.98;;;;;;;;;;5094686;28;20072;-76
2023/07/21 03:47:45;;;;;;;4.55;1.35;;;;;;;;;;5062369;28;20049;-76
2023/07/21 03:50:11;;;;;;;2.78;1.30;;;;;;;;;;5062112;28;20107;-75
2023/07/21 03:52:40;;;;;;;1.77;1.10;;;;;;;;;;5061976;28;20072;-75
2023/07/21 03:55:06;;;;;;;1.50;0.47;;;;;;;;;;5062428;28;20068;-77
2023/07/21 03:57:32;;;;;;;1.40;0.60;;;;;;;;;;5062275;28;20132;-76
2023/07/21 03:59:58;;;;;;;1.52;0.75;;;;;;;;;;5062785;28;20056;-77
2023/07/21 04:02:25;;;;;;;1.90;0.80;;;9.10;99.90;;;;;;5062275;28;20581;-76
2023/07/21 04:04:53;;;;;;;3.42;0.60;;;;;;;;;;5060794;28;20036;-78
2023/07/21 04:07:21;;;;;;;0.95;0.40;;;;;;;;;;5049019;28;20057;-76
2023/07/21 04:09:47;;;;;;;3.67;0.60;;;;;;;;;;5061246;28;20056;-76
2023/07/21 04:12:13;;;;;;;2.38;0.70;;;;;;;;;;5060207;28;20055;-76
2023/07/21 04:14:39;;;;;;;1.15;0.60;;;;;;;;;;5060157;28;20055;-76
2023/07/21 04:17:06;;;;;;;0.90;0.32;;;;;;;;;;5061034;28;20049;-76
2023/07/21 04:19:32;;;;;;;0.80;0.40;;;;;;;;;;5060720;28;20056;-77
2023/07/21 04:22:00;;;;;;;2.88;0.60;;;;;;;;;;5093864;28;20634;-77
2023/07/21 04:24:26;;;;;;;0.75;0.40;;;;;;;;;;5059222;28;20052;-76
2023/07/21 04:26:52;;;;;;;0.85;0.30;;;;;;;;;;5041599;28;20490;-75
2023/07/21 04:29:18;;;;;;;1.10;0.47;;;;;;;;;;5057842;28;20063;-75
2023/07/21 04:31:44;;;;;;;2.40;0.47;;;;;;;;;;5054726;28;20048;-76
2023/07/21 04:34:10;;;;;;;1.05;0.55;;;;;;;;;;5041392;28;20094;-75
2023/07/21 04:36:37;;;;;;;1.65;0.50;;;;;;;;;;5058554;28;20041;-77
2023/07/21 04:39:03;;;;;;;1.08;0.50;;;;;;;;;;5061029;28;20057;-77
2023/07/21 04:41:30;;;;;;;2.33;0.93;;;;;;;;;;5055852;28;20390;-76
2023/07/21 04:43:55;;;;;;;1.63;0.75;;;10.90;99.90;;;;;;5061315;28;20053;-77
2023/07/21 04:46:21;;;;;;;1.10;0.50;;;;;;;;;;5061010;28;20061;-75
2023/07/21 04:48:48;;;;;;;1.33;0.70;;;;;;;;;;5061714;28;20059;-77
2023/07/21 04:51:14;;;;;;;0.90;0.50;;;;;;;;;;5060968;28;20131;-76
2023/07/21 04:53:42;;;;;;;1.63;0.38;;;;;;;;;;5061096;28;20497;-77
2023/07/21 04:56:09;;;;;;;0.68;0.30;;;;;;;;;;5060580;28;20052;-77
2023/07/21 04:58:35;;;;;;;1.70;0.70;;;;;;;;;;5060402;28;20045;-76
2023/07/21 05:01:01;;;;;;;1.92;1.60;;;;;;;;;;5061105;28;20616;-76
2023/07/21 05:03:27;;;;;;;1.88;1.00;;;;;;;;;;5061057;28;20048;-77
2023/07/21 05:05:53;;;;;;;2.35;1.40;;;11.90;99.90;;;;;;5058569;28;20050;-76
2023/07/21 05:08:20;;;;;;;3.70;1.88;;;;;;;;;;5060793;28;20044;-77
2023/07/21 05:10:46;;;;;;;4.40;2.25;;;12.30;99.90;;;;;;5059728;28;20056;-76
2023/07/21 05:13:12;;;;;;;3.28;1.92;;;;;;;;;;5060195;28;20092;-76
2023/07/21 05:15:38;;;;;;;2.60;1.90;;;;;;;;;;5060607;28;20040;-76
2023/07/21 05:18:04;;;;;;;5.40;2.22;;;;;;;;;;5060880;28;20048;-76
2023/07/21 05:20:30;;;;;;;5.60;2.05;;;;;;;;;;5057155;28;20161;-77
2023/07/21 05:22:56;;;;;;;5.68;1.70;;;;;;;;;;5050336;28;20049;-77
2023/07/21 05:25:22;;;;;;;12.88;2.75;;;12.50;99.90;;;;;;5042340;28;20560;-77
2023/07/21 05:27:49;;;;;;;6.88;2.70;;;13.10;99.90;;;;;;5060168;28;20052;-77
2023/07/21 05:30:15;;;;;;;5.30;2.30;;;13.40;99.90;;;;;;5060489;28;20190;-78
2023/07/21 05:32:42;;;;;;;6.85;2.25;;;;;;;;;;5058603;28;20048;-78
2023/07/21 05:35:10;;;;;;;6.13;2.70;;;;;;;;;;5059369;28;20183;-78
2023/07/21 05:37:36;;;;;;;7.22;2.75;;;;;;;;;;5054574;28;20059;-78
2023/07/21 05:40:03;;;;;;;6.85;3.15;;;14.80;99.90;;;;;;5060454;28;20138;-78
2023/07/21 05:42:30;;;;;;;6.22;2.97;;;;;;;;;;5098575;27;20048;-78
2023/07/21 05:44:55;;;;;;;11.23;3.08;;;16.80;99.90;;;;;;5059784;28;20084;-78
2023/07/21 05:47:22;;;;;;;5.47;2.75;;;17.80;99.90;;;;;;5059026;28;20528;-78
2023/07/21 05:49:48;;;;;;;9.13;2.30;;;;;;;;;;5064456;28;20100;-79
2023/07/21 05:52:14;;;;;;;9.23;2.50;;;;;;;;;;5060849;28;20080;-79
2023/07/21 05:54:41;;;;;;;14.18;2.70;;;;;;;;;;5058908;28;20052;-79
2023/07/21 05:57:07;;;;;;;11.88;2.00;;;18.40;99.90;;;;;;5062008;28;20048;-79
2023/07/21 05:59:33;;;;;;;5.70;2.33;;;18.50;99.90;;;;;;5061946;28;20101;-79
2023/07/21 06:02:00;;;;;;;5.60;2.30;;;18.50;99.90;;;;;;5094744;28;20052;-79
2023/07/21 06:04:25;;;;;;;5.00;1.60;;;18.50;99.90;;;;;;5057975;28;20181;-80
2023/07/21 06:06:53;;;;;;;4.45;1.67;;;21.20;99.90;;;;;;5063430;28;20154;-79
2023/07/21 06:09:20;;;;;;;4.00;1.70;;;;;;;;;;5047968;28;20048;-80
2023/07/21 06:11:46;;;;;;;2.70;1.42;;;24.10;95.70;;;;;;5059635;28;20048;-77
2023/07/21 06:14:12;;;;;;;2.97;1.10;;;24.10;94.80;;;;;;5060546;28;20044;-80
2023/07/21 06:16:38;;;;;;;4.75;1.65;;;26.30;90.10;;;;;;5059357;28;20405;-80
2023/07/21 06:19:03;;;;;;;3.13;1.23;;;26.10;89.50;;;;;;5044189;28;20075;-78
2023/07/21 06:21:30;;;;;;;5.45;1.10;;;;;;;;;;5061913;28;20053;-82
2023/07/21 06:23:55;;;;;;;4.10;1.45;;;28.10;80.20;;;;;;5058504;28;20146;-81
2023/07/21 06:26:21;;;;;;;6.55;1.00;;;28.90;77.10;;;;;;5060477;28;20322;-81
2023/07/21 06:28:47;;;;;;;5.53;0.98;;;29.50;74.20;;;;;;5062365;28;20485;-81
2023/07/21 06:31:14;;;;;;;3.08;0.93;;;30.10;72.40;;;;;;5062335;28;20036;-83
2023/07/21 06:33:40;;;;;;;6.07;1.40;;;30.50;70.30;;;;;;5063805;28;20047;-82
2023/07/21 06:36:06;;;;;;;3.88;0.73;;;;;;;;;;5062002;28;20040;-83
2023/07/21 06:38:33;;;;;;;2.40;1.00;;;31.10;65.90;;;;;;5059182;28;20581;-82
2023/07/21 06:41:00;;;;;;;4.75;0.73;;;31.50;65.20;;;;;;5059436;28;20059;-83
2023/07/21 06:43:25;;;;;;;3.47;0.43;;;31.90;63.20;;;;;;5066118;28;20044;-81
2023/07/21 06:45:51;;;;;;;2.25;0.73;;;30.40;60.80;;;;;;5060825;28;20143;-82
2023/07/21 06:48:18;;;;;;;4.88;0.82;;;;;;;;;;5042659;28;20413;-83
2023/07/21 06:50:44;;;;;;;4.85;0.63;;;32.50;59.10;;;;;;5070824;28;20044;-83
2023/07/21 06:53:09;;;;;;;5.38;0.80;;;32.60;58.40;;;;;;5066003;28;20463;-84
2023/07/21 06:55:36;;;;;;;2.25;0.73;;;33.30;57.40;;;;;;5058228;28;20048;-83
2023/07/21 06:58:02;;;;;;;3.97;0.95;;;33.90;59.50;;;;;;5041288;28;20214;-84
2023/07/21 07:00:28;;;;;;;2.30;0.70;;;;;;;;;;5057413;28;20414;-86
2023/07/21 07:02:56;;;;;;;3.72;0.52;;;35.10;53.80;;;;;;5054768;28;20760;-80
2023/07/21 07:05:22;;;;;;;4.13;0.57;;;;;;;;;;5091556;27;20059;-82
2023/07/21 07:07:50;;;;;;;3.58;0.40;;;35.60;52.70;;;;;;5059484;28;20051;-83
2023/07/21 07:10:16;;;;;;;2.20;0.38;;;36.10;51.60;;;;;;5094770;28;20090;-85
2023/07/21 07:12:41;;;;;;;1.92;0.20;;;36.30;51.50;;;;;;5056026;28;20123;-83
2023/07/21 07:15:09;;;;;;;1.00;0.20;;;36.60;50.50;;;;;;5044235;28;20727;-83
2023/07/21 07:17:34;;;;;;;1.83;0.30;;;36.70;47.80;;;;;;5058630;28;20073;-82
2023/07/21 07:20:01;;;;;;;1.00;0.20;;;36.90;48.00;;;;;;5057969;28;20052;-81
2023/07/21 07:22:26;;;;;;;2.33;0.47;;;37.80;51.60;;;;;;5057794;28;20076;-83
2023/07/21 07:24:52;;;;;;;3.35;0.60;;;37.30;47.50;;;;;;5059205;28;20106;-82
2023/07/21 07:27:18;;;;;;;5.43;0.40;;;37.80;52.30;;;;;;5040819;28;20052;-85
2023/07/21 07:29:44;;;;;;;1.98;0.30;;;37.50;53.00;;;;;;5057532;28;20498;-84
2023/07/21 07:32:09;;;;;;;2.00;0.25;;;37.40;47.40;;;;;;5057469;28;20148;-82
2023/07/21 07:34:35;;;;;;;2.80;0.30;;;37.70;46.10;;;;;;5040864;28;20633;-82
2023/07/21 07:37:01;;;;;;;4.10;0.38;;;36.90;44.20;;;;;;5063733;28;20054;-88
2023/07/21 07:39:27;;;;;;;1.40;0.35;;;;;;;;;;5058523;28;20119;-85
2023/07/21 07:41:53;;;;;;;2.33;0.65;;;38.30;44.20;;;;;;5061178;28;20549;-84
2023/07/21 07:44:19;;;;;;;3.15;0.40;;;38.50;44.70;;;;;;5061058;28;20048;-82
2023/07/21 07:46:45;;;;;;;1.63;0.50;;;38.60;44.10;;;;;;5046923;28;20052;-83
2023/07/21 07:49:11;;;;;;;1.35;0.30;;;;;;;;;;5044178;28;20711;-81
2023/07/21 07:51:39;;;;;;;1.75;0.57;;;38.80;43.20;;;;;;5072426;28;20048;-84
2023/07/21 07:54:06;;;;;;;2.03;0.40;;;38.90;47.40;;;;;;5032051;28;20653;-84
2023/07/21 07:56:32;;;;;;;3.60;0.65;;;38.90;42.60;;;;;;5063173;28;20333;-85
2023/07/21 07:58:57;;;;;;;1.75;0.40;;;39.50;45.40;;;;;;5067921;28;20055;-81
2023/07/21 08:01:24;;;;;;;2.45;0.50;;;39.30;42.20;;;;;;5063881;28;20046;-84
2023/07/21 08:03:50;;;;;;;2.75;0.30;;;39.40;41.90;;;;;;5061782;28;20053;-84
2023/07/21 08:06:16;;;;;;;2.03;0.40;;;39.50;45.90;;;;;;5066477;28;20913;-84
2023/07/21 08:08:42;;;;;;;1.52;0.30;;;39.70;41.20;;;;;;5062254;28;20092;-85
2023/07/21 08:11:08;;;;;;;2.38;0.22;;;39.60;41.00;;;;;;5072296;28;20091;-79
2023/07/21 08:13:34;;;;;;;1.38;0.30;;;39.70;40.60;;;;;;5059860;28;20048;-83
2023/07/21 08:16:03;;;;;;;1.40;0.20;;;39.70;40.90;;;;;;5062790;28;20067;-84
2023/07/21 08:18:29;;;;;;;0.75;0.20;;;39.90;39.50;;;;;;5096136;27;20066;-84
2023/07/21 08:20:54;;;;;;;1.77;0.20;;;40.00;40.20;;;;;;5066252;28;20135;-85
2023/07/21 08:23:21;;;;;;;0.93;0.20;;;;;;;;;;5071152;28;20040;-82
2023/07/21 08:25:46;;;;;;;0.30;0.10;;;40.10;39.00;;;;;;5104031;27;20132;-83
2023/07/21 08:28:12;;;;;;;1.80;0.40;;;40.00;42.80;;;;;;5080981;28;20088;-82
2023/07/21 08:30:38;;;;;;;1.17;0.25;;;39.70;43.00;;;;;;5076209;28;20044;-84
2023/07/21 08:33:04;;;;;;;1.10;0.25;;;39.70;39.70;;;;;;5075256;28;20134;-84
2023/07/21 08:35:31;;;;;;;2.95;0.25;;;;;;;;;;5070374;28;20495;-82
2023/07/21 08:37:57;;;;;;;2.60;0.20;;;39.40;38.30;;;;;;5076514;28;20115;-83
2023/07/21 08:40:23;;;;;;;1.17;0.10;;;40.30;47.80;;;;;;5068687;28;20144;-83
2023/07/21 08:42:50;;;;;;;1.23;0.32;;;40.30;39.00;;;;;;5075534;28;20343;-80
2023/07/21 08:45:16;;;;;;;1.10;0.20;;;40.60;40.40;;;;;;5073800;28;20044;-81
2023/07/21 08:47:42;;;;;;;1.90;0.30;;;41.20;40.20;;;;;;5108153;27;20064;-80
2023/07/21 08:50:08;;;;;;;0.40;0.10;;;40.80;39.10;;;;;;5067480;28;20129;-82
2023/07/21 08:52:34;;;;;;;1.13;0.20;;;42.20;39.40;;;;;;5073382;28;20055;-82
2023/07/21 08:55:00;;;;;;;1.77;0.30;;;41.00;38.50;;;;;;5065895;28;20045;-80
2023/07/21 08:57:27;;;;;;;1.10;0.20;;;41.20;38.10;;;;;;5063470;28;20071;-81
2023/07/21 08:59:56;;;;;;;2.75;0.25;;;41.30;38.30;;;;;;5096487;28;20072;-79
2023/07/21 09:02:46;;;;;;;0.90;0.30;;;41.20;36.40;;;;;;5099023;28;20052;-82
2023/07/21 09:05:16;;;;;;;1.08;0.20;;;41.20;38.00;;;;;;5060491;28;20059;-84
2023/07/21 09:07:44;;;;;;;1.65;0.20;;;;;;;;;;5052021;28;20087;-82
2023/07/21 09:10:10;;;;;;;1.23;0.73;;;39.00;36.70;;;;;;5069455;28;20058;-79
2023/07/21 09:12:37;;;;;;;0.55;0.10;;;36.80;42.10;;;;;;5069642;28;20052;-79
2023/07/21 09:15:10;;;;;;;2.65;0.30;;;36.70;40.10;;;;;;5056972;28;20052;-82
2023/07/21 09:17:45;;;;;;;2.25;0.10;;;34.30;43.60;;;;;;5102533;28;20055;-81
2023/07/21 09:20:11;;;;;;;0.82;0.10;;;;;;;;;;5064475;28;20475;-79
2023/07/21 09:22:41;;;;;;;1.92;0.20;;;35.20;40.50;;;;;;5061579;28;20048;-80
2023/07/21 09:25:08;;;;;;;1.15;0.13;;;34.30;41.00;;;;;;5064153;28;20425;-78
2023/07/21 09:27:38;;;;;;;2.17;0.20;;;34.70;44.50;;;;;;5062064;28;20051;-78
2023/07/21 09:30:04;;;;;;;2.80;0.25;;;36.10;41.50;;;;;;5060088;28;20071;-84
2023/07/21 09:32:39;;;;;;;1.25;0.10;;;36.60;40.40;;;;;;5057687;28;20565;-81
2023/07/21 09:35:05;;;;;;;0.75;0.15;;;37.10;41.40;;;;;;5061567;28;20087;-83
2023/07/21 09:37:33;;;;;;;0.68;0.20;;;36.80;40.90;;;;;;5061547;28;20041;-78
2023/07/21 09:40:02;;;;;;;0.95;0.20;;;35.30;41.00;;;;;;5063189;28;20685;-84
2023/07/21 09:42:29;;;;;;;1.25;0.17;;;35.40;41.60;;;;;;5062084;28;20819;-82
2023/07/21 09:44:56;;;;;;;0.63;0.10;;;35.60;41.30;;;;;;5047044;28;20056;-85
2023/07/21 09:47:23;;;;;;;0.20;0.10;;;36.00;41.60;;;;;;5059996;28;20087;-84
2023/07/21 09:49:50;;;;;;;0.77;0.17;;;36.50;42.70;;;;;;5049873;28;20050;-83
2023/07/21 09:52:17;;;;;;;0.40;0.20;;;36.80;39.50;;;;;;4975932;28;20064;-81
2023/07/21 09:54:47;;;;;;;1.58;0.10;;;37.20;40.10;;;;;;4988075;28;21418;-82
2023/07/21 09:57:21;;;;;;;0.77;0.20;;;36.50;39.80;;;;;;4980670;28;20988;-82
2023/07/21 09:59:54;;;;;;;1.25;0.20;;;35.60;41.30;;;;;;4976355;28;20148;-82
2023/07/21 10:02:22;;;;;;;1.67;0.20;;;35.60;42.70;;;;;;4983811;28;20053;-80
2023/07/21 10:04:48;;;;;;;18.48;2.78;;;35.90;43.20;;;;;;4983547;28;20085;-81
2023/07/21 10:07:15;;;;;;;3.85;0.47;;;35.60;41.60;;;;;;4985498;28;20051;-81
2023/07/21 10:09:44;;;;;;;0.82;0.20;;;34.50;41.10;;;;;;4980188;28;20054;-81
2023/07/21 10:12:18;;;;;;;1.15;0.10;;;34.10;43.50;;;;;;4982553;28;20051;-77
2023/07/21 10:14:47;;;;;;;1.15;0.20;;;34.20;45.00;;;;;;5004701;28;20061;-83
2023/07/21 10:17:24;;;;;;;1.50;0.20;;;34.70;46.40;;;;;;5034860;28;20056;-84
2023/07/21 10:20:07;;;;;;;2.60;0.20;;;34.80;44.60;;;;;;4988557;28;20119;-81
2023/07/21 10:22:33;;;;;;;0.77;0.20;;;34.90;45.20;;;;;;4999856;28;20049;-79
2023/07/21 10:25:00;;;;;;;0.50;0.10;;;34.50;43.20;;;;;;5015295;28;20053;-80
2023/07/21 10:27:27;;;;;;;0.57;0.20;;;34.20;43.90;;;;;;5022335;28;20081;-80
2023/07/21 10:29:56;;;;;;;2.30;0.20;;;33.90;44.10;;;;;;5051983;28;20061;-80
2023/07/21 10:32:24;;;;;;;0.70;0.22;;;33.60;43.20;;;;;;5019379;28;20052;-81
2023/07/21 10:34:51;;;;;;;0.95;0.22;;;32.30;43.30;;;;;;5018835;28;20056;-81
2023/07/21 10:37:18;;;;;;;0.82;0.20;;;;;;;;;;5018995;28;20052;-82
2023/07/21 10:39:54;;;;;;;1.02;0.38;;;31.60;44.30;;;;;;5019896;28;20076;-79
2023/07/21 10:42:20;;;;;;;1.48;0.20;;;;;;;;;;5003740;28;20132;-79
2023/07/21 10:44:48;;;;;;;1.23;0.25;;;30.40;47.10;;;;;;5018141;28;20136;-82
2023/07/21 10:47:16;;;;;;;8.73;1.75;;;29.40;48.10;;;;;;5020009;28;20631;-78
2023/07/21 10:49:42;;;;;;;1.55;0.13;;;29.40;48.70;;;;;;5019941;28;20418;-82
2023/07/21 10:52:09;;;;;;;3.53;0.40;;;28.80;50.20;;;;;;5019765;28;20649;-79
2023/07/21 10:54:38;;;;;;;1.13;0.25;;;28.70;49.40;;;;;;5023237;28;20087;-81
2023/07/21 10:57:05;;;;;;;1.00;0.30;;;;;;;;;;5019818;28;20049;-77
2023/07/21 10:59:35;;;;;;;2.50;0.30;;;26.70;51.90;;;;;;5020492;28;20549;-81
2023/07/21 11:02:03;;;;;;;5.38;0.50;;;26.00;53.40;;;;;;5030839;28;20136;-76
2023/07/21 11:04:30;;;;;;;2.78;0.65;;;25.70;58.20;;;;;;5020448;28;20085;-76
2023/07/21 11:06:58;;;;;;;1.77;0.30;;;25.10;59.20;;;;;;5019822;28;20045;-76
2023/07/21 11:09:25;;;;;;;2.83;0.60;;;;;;;;;;5019313;28;20136;-77
2023/07/21 11:11:53;;;;;;;2.40;0.32;;;24.70;59.60;;;;;;5019192;28;20057;-77
2023/07/21 11:14:24;;;;;;;5.20;0.55;;;24.70;61.70;;;;;;5019630;28;20061;-76
2023/07/21 11:16:50;;;;;;;4.03;0.40;;;;;;;;;;5049242;28;20099;-78
2023/07/21 11:19:17;;;;;;;1.02;0.30;;;24.90;61.60;;;;;;4996801;28;20050;-78
2023/07/21 11:21:43;;;;;;;2.40;0.43;;;25.20;62.00;;;;;;5019782;28;20049;-77
2023/07/21 11:24:09;;;;;;;2.33;0.63;;;24.80;66.70;;;;;;5019518;28;20053;-76
2023/07/21 11:26:39;;;;;;;4.03;0.40;;;24.80;63.20;;;;;;5024918;28;20076;-78
2023/07/21 11:29:08;;;;;;;1.30;0.40;;;24.70;64.10;;;;;;5019239;28;20081;-78
2023/07/21 11:31:36;;;;;;;1.60;0.40;;;24.60;65.30;;;;;;5019370;28;20076;-77
2023/07/21 11:34:03;;;;;;;1.80;0.40;;;24.70;65.40;;;;;;5019969;28;20569;-76
2023/07/21 11:36:31;;;;;;;2.67;0.50;;;24.90;65.10;;;;;;5019935;28;20056;-77
2023/07/21 11:39:14;;;;;;;1.60;0.50;;;25.70;69.30;;;;;;5003623;28;20061;-78
2023/07/21 11:41:40;;;;;;;2.72;0.60;;;25.50;65.70;;;;;;5019538;28;20056;-80
2023/07/21 11:44:22;;;;;;;1.60;0.40;;;25.70;64.50;;;;;;5022120;28;20049;-79
2023/07/21 11:47:06;;;;;;;1.10;0.30;;;25.60;64.60;;;;;;5022286;28;20581;-79
2023/07/21 11:49:36;;;;;;;1.40;0.43;;;28.90;65.90;;;;;;5020622;28;20546;-80
2023/07/21 11:52:05;;;;;;;2.40;0.40;;;;;;;;;;5023296;28;20055;-78
2023/07/21 11:54:44;;;;;;;3.33;0.93;;;25.10;66.80;;;;;;5021969;28;20167;-79
2023/07/21 11:57:11;;;;;;;1.73;0.40;;;25.10;63.20;;;;;;5054887;28;20088;-78
2023/07/21 11:59:37;;;;;;;2.00;0.40;;;25.10;68.20;;;;;;5022214;28;20045;-79
2023/07/21 12:02:05;;;;;;;1.00;0.40;;;24.90;63.80;;;;;;5024279;28;20061;-80
2023/07/21 12:04:34;;;;;;;3.50;0.35;;;25.00;63.80;;;;;;5023241;28;20045;-78
2023/07/21 12:07:00;;;;;;;1.67;0.40;;;24.90;63.50;;;;;;5022785;28;20049;-75
2023/07/21 12:09:27;;;;;;;4.00;0.30;;;24.80;64.10;;;;;;5022195;28;20049;-79
2023/07/21 12:11:54;;;;;;;4.93;0.80;;;24.80;64.70;;;;;;5006065;28;20045;-79
2023/07/21 12:14:20;;;;;;;0.90;0.22;;;24.90;64.20;;;;;;5023169;28;20042;-78
2023/07/21 12:16:45;;;;;;;2.40;0.60;;;25.00;63.30;;;;;;5023171;28;20514;-76
2023/07/21 12:19:12;;;;;;;2.03;0.57;;;25.00;62.50;;;;;;5023583;28;20049;-78
2023/07/21 12:21:37;;;;;;;1.60;0.70;;;24.90;63.00;;;;;;5056959;28;20060;-79
2023/07/21 12:24:04;;;;;;;2.42;0.47;;;;;;;;;;5023377;28;20049;-78
2023/07/21 12:26:30;;;;;;;1.60;0.50;;;24.30;62.50;;;;;;5009490;28;20056;-81
2023/07/21 12:28:56;;;;;;;2.22;0.68;;;;;;;;;;5030649;28;20057;-83
2023/07/21 12:31:22;;;;;;;2.67;0.73;;;;;;;;;;5024726;28;20128;-81
2023/07/21 12:33:48;;;;;;;0.77;0.30;;;24.10;64.80;;;;;;5008068;28;20054;-83
2023/07/21 12:36:18;;;;;;;2.15;0.40;;;24.00;63.60;;;;;;5027374;28;20561;-80
2023/07/21 12:38:44;;;;;;;0.68;0.20;;;23.40;64.00;;;;;;5027206;28;20052;-85
2023/07/21 12:41:11;;;;;;;0.98;0.30;;;23.80;68.90;;;;;;5026320;28;20042;-84
2023/07/21 12:43:37;;;;;;;1.45;0.30;;;;;;;;;;5024360;28;20142;-81
2023/07/21 12:46:04;;;;;;;0.98;0.30;;;23.50;69.40;;;;;;5025248;28;20288;-82
2023/07/21 12:48:30;;;;;;;0.85;0.20;;;23.20;64.90;;;;;;5023886;28;20450;-83
2023/07/21 12:51:01;;;;;;;2.80;0.30;;;23.20;65.20;;;;;;5058026;28;20153;-80
2023/07/21 12:53:27;;;;;;;4.13;0.30;;;23.20;69.10;;;;;;5024605;28;20064;-81
2023/07/21 12:55:53;;;;;;;1.70;0.50;;;;;;;;;;5023639;28;20087;-82
2023/07/21 12:58:20;;;;;;;4.88;0.35;;;;;;;;;;5024815;28;20053;-82
2023/07/21 13:00:46;;;;;;;4.35;0.45;;;23.10;64.60;;;;;;5008961;28;20061;-83
2023/07/21 13:03:12;;;;;;;3.78;0.40;;;;;;;;;;5025099;28;20270;-82
2023/07/21 13:05:39;;;;;;;1.48;0.30;;;;;;;;;;5025176;28;20471;-81
2023/07/21 13:08:05;;;;;;;2.78;0.20;;;;;;;;;;5024632;28;20533;-82
2023/07/21 13:10:35;;;;;;;1.10;0.70;;;23.00;62.90;;;;;;5027439;28;20111;-82
2023/07/21 13:13:05;;;;;;;3.53;0.30;;;22.80;62.50;;;;;;5029445;28;20049;-79
2023/07/21 13:15:32;;;;;;;0.68;0.22;;;;;;;;;;5029935;28;20052;-82
2023/07/21 13:17:58;;;;;;;3.95;0.65;;;;;;;;;;5030848;28;20049;-83
2023/07/21 13:20:24;;;;;;;3.83;0.50;;;;;;;;;;5011015;28;20049;-78
2023/07/21 13:22:50;;;;;;;6.85;1.90;;;;;;;;;;5028973;28;20758;-81
2023/07/21 13:25:17;;;;;;;4.97;1.67;;;;;;;;;;5011222;28;20060;-81
2023/07/21 13:27:43;;;;;;;4.53;1.38;;;20.50;71.20;;;;;;5014259;28;20104;-77
2023/07/21 13:30:09;;;;;;;3.75;1.40;;;;;;;;;;5026350;28;20053;-81